San Gabriel, California
Current Conditions -  °F | °C
As of 11:45 AM on Monday 24 Nov 2014 (Local Time) from KEMT Reporting Station
Clear Clear  
Wind Chill: 24°   Ceiling: Unl
Heat Index: 24°   Visibility: 10mi
Dew Point: -9°   Wind: 3mph
Humidity: 11%   Direction: 180°S
Pressure: 30.22"   Gusts: NA
Location:  34.1°N, 118.1°W
Report Text: KEMT 241945Z 18003KT 10SM CLR 24/M09 A3022
Loading
Personal Weather Stations






























Interactive Weather Map New forecast layout! Learn more

10-Day Weather Forecast

Advertisements
Track Severe Weather on mobile